Time;durP1;ratioP1;P1;durP2;ratioP2;P2;SDS_P1;SDS_P2;PMS_P1;PMS_P2;Temp;Humidity;BMP_temperature;BMP_pressure;BME280_temperature;BME280_humidity;BME280_pressure;Samples;Min_cycle;Max_cycle;Signal;HPM_P1;HPM_P2
2022/08/06 00:01:42;;;;;;;7.50;1.63;;;14.70;99.90;;;;;;5096677;28;20024;-68
2022/08/06 00:04:07;;;;;;;4.38;1.40;;;14.70;99.90;;;;;;5096399;28;20059;-68
2022/08/06 00:06:33;;;;;;;3.40;1.05;;;14.70;99.90;;;;;;5096136;28;20506;-69
2022/08/06 00:08:59;;;;;;;5.50;1.60;;;14.70;99.90;;;;;;5096439;28;20024;-68
2022/08/06 00:11:25;;;;;;;7.25;1.10;;;14.60;99.90;;;;;;5095083;28;20369;-67
2022/08/06 00:13:50;;;;;;;5.75;1.50;;;14.60;99.90;;;;;;5096516;28;20058;-67
2022/08/06 00:16:16;;;;;;;8.20;1.42;;;14.60;99.90;;;;;;5096289;28;20055;-67
2022/08/06 00:18:42;;;;;;;3.60;1.15;;;14.50;99.90;;;;;;5096330;28;20476;-68
2022/08/06 00:21:08;;;;;;;2.95;1.52;;;14.50;99.90;;;;;;5095962;28;20028;-66
2022/08/06 00:23:33;;;;;;;3.15;1.00;;;14.50;99.90;;;;;;5096170;28;20020;-68
2022/08/06 00:25:59;;;;;;;7.47;1.90;;;14.50;99.90;;;;;;5094856;28;20024;-67
2022/08/06 00:28:25;;;;;;;4.65;1.23;;;14.40;99.90;;;;;;5096170;28;20024;-66
2022/08/06 00:30:51;;;;;;;7.82;2.00;;;14.40;99.90;;;;;;5096115;28;20354;-67
2022/08/06 00:33:17;;;;;;;3.58;1.10;;;14.40;99.90;;;;;;5096007;28;20030;-67
2022/08/06 00:35:44;;;;;;;3.45;1.08;;;14.40;99.90;;;;;;5095455;28;20024;-66
2022/08/06 00:38:09;;;;;;;5.88;1.50;;;14.30;99.90;;;;;;5096197;28;20020;-67
2022/08/06 00:40:36;;;;;;;5.80;1.33;;;14.30;99.90;;;;;;5095977;28;20060;-67
2022/08/06 00:43:04;;;;;;;5.43;1.30;;;14.30;99.90;;;;;;5095379;28;20024;-70
2022/08/06 00:45:33;;;;;;;3.22;1.00;;;14.30;99.90;;;;;;5096077;28;20414;-66
2022/08/06 00:48:00;;;;;;;4.00;1.27;;;14.30;99.90;;;;;;5095795;28;20020;-70
2022/08/06 00:50:26;;;;;;;1.95;1.00;;;14.30;99.90;;;;;;5094822;28;20103;-68
2022/08/06 00:52:51;;;;;;;6.97;1.27;;;14.20;99.90;;;;;;5084105;28;20158;-67
2022/08/06 00:55:17;;;;;;;5.22;1.20;;;14.20;99.90;;;;;;5075606;28;20027;-67
2022/08/06 00:57:43;;;;;;;5.75;1.27;;;14.20;99.90;;;;;;5075303;28;20459;-67
2022/08/06 01:00:09;;;;;;;3.25;0.88;;;14.20;99.90;;;;;;5075414;28;20440;-67
2022/08/06 01:02:35;;;;;;;3.20;1.10;;;14.10;99.90;;;;;;5075414;28;20020;-67
2022/08/06 01:05:00;;;;;;;7.55;1.17;;;14.10;99.90;;;;;;5074612;28;20458;-67
2022/08/06 01:07:26;;;;;;;5.07;0.95;;;14.10;99.90;;;;;;5074571;28;20030;-70
2022/08/06 01:09:52;;;;;;;7.03;1.83;;;14.00;99.90;;;;;;5075131;28;20089;-68
2022/08/06 01:12:18;;;;;;;3.70;1.30;;;14.00;99.90;;;;;;5075087;28;20017;-68
2022/08/06 01:14:44;;;;;;;3.88;1.15;;;14.00;99.90;;;;;;5074596;28;20074;-66
2022/08/06 01:17:36;;;;;;;2.05;1.00;;;13.90;99.90;;;;;;5074623;28;20016;-67
2022/08/06 01:20:14;;;;;;;6.88;1.35;;;13.90;99.90;;;;;;5074695;28;20029;-67
2022/08/06 01:22:56;;;;;;;3.83;1.13;;;13.90;99.90;;;;;;5074661;28;20025;-69
2022/08/06 01:25:50;;;;;;;8.00;1.52;;;13.90;99.90;;;;;;5074375;28;20016;-67
2022/08/06 01:28:53;;;;;;;4.57;1.30;;;13.80;99.90;;;;;;5074658;28;20017;-71
2022/08/06 01:31:43;;;;;;;2.58;1.00;;;13.90;99.90;;;;;;5072695;28;20040;-68
2022/08/06 01:34:16;;;;;;;3.53;1.13;;;13.80;99.90;;;;;;5073980;28;20143;-67
2022/08/06 01:36:51;;;;;;;4.43;1.17;;;13.80;99.90;;;;;;5074144;28;20109;-67
2022/08/06 01:39:20;;;;;;;7.47;1.13;;;13.80;99.90;;;;;;5074104;28;20037;-67
2022/08/06 01:41:51;;;;;;;6.50;0.90;;;13.80;99.90;;;;;;5073789;28;20374;-69
2022/08/06 01:44:20;;;;;;;4.10;0.95;;;13.80;99.90;;;;;;5074359;28;20460;-68
2022/08/06 01:46:56;;;;;;;5.45;1.05;;;13.80;99.90;;;;;;5073721;28;20023;-69
2022/08/06 01:49:28;;;;;;;4.97;1.50;;;13.80;99.90;;;;;;5073677;28;20048;-68
2022/08/06 01:51:58;;;;;;;4.15;1.35;;;13.70;99.90;;;;;;5077577;28;20099;-68
2022/08/06 01:54:25;;;;;;;3.08;1.00;;;13.70;99.90;;;;;;5094275;28;20035;-67
2022/08/06 01:56:53;;;;;;;5.53;1.05;;;13.70;99.90;;;;;;5093339;28;20368;-67
2022/08/06 01:59:24;;;;;;;2.72;1.00;;;13.70;99.90;;;;;;5093814;28;20458;-67
2022/08/06 02:01:54;;;;;;;4.93;0.73;;;13.70;99.90;;;;;;5092515;28;20028;-68
2022/08/06 02:04:23;;;;;;;1.85;0.95;;;13.60;99.90;;;;;;5094278;28;20513;-67
2022/08/06 02:06:50;;;;;;;3.35;1.10;;;13.60;99.90;;;;;;5094103;28;20027;-67
2022/08/06 02:09:19;;;;;;;3.33;1.10;;;13.60;99.90;;;;;;5093995;28;20028;-71
2022/08/06 02:11:50;;;;;;;2.17;0.82;;;13.60;99.90;;;;;;5094022;28;20023;-67
2022/08/06 02:14:18;;;;;;;4.82;1.05;;;13.60;99.90;;;;;;5094006;28;20028;-67
2022/08/06 02:16:45;;;;;;;4.25;1.00;;;13.60;99.90;;;;;;5093781;28;20020;-65
2022/08/06 02:19:13;;;;;;;6.53;1.10;;;13.60;99.90;;;;;;5093505;28;20126;-68
2022/08/06 02:21:42;;;;;;;6.72;1.23;;;13.60;99.90;;;;;;5094017;28;20092;-67
2022/08/06 02:24:09;;;;;;;5.68;1.23;;;13.60;99.90;;;;;;5093381;28;20024;-67
2022/08/06 02:26:36;;;;;;;5.30;1.00;;;13.60;99.90;;;;;;5093492;28;20027;-66
2022/08/06 02:29:09;;;;;;;2.40;0.93;;;13.60;99.90;;;;;;5093529;28;20100;-67
2022/08/06 02:31:35;;;;;;;1.67;0.90;;;13.70;99.90;;;;;;5093066;28;20095;-68
2022/08/06 02:34:01;;;;;;;6.22;0.98;;;13.60;99.90;;;;;;5093184;28;20103;-67
2022/08/06 02:36:32;;;;;;;2.50;0.80;;;13.70;99.90;;;;;;5092856;28;20046;-68
2022/08/06 02:39:08;;;;;;;4.50;0.93;;;13.60;99.90;;;;;;5093384;28;20036;-69
2022/08/06 02:41:41;;;;;;;3.05;0.90;;;13.60;99.90;;;;;;5093051;28;20036;-71
2022/08/06 02:44:16;;;;;;;2.78;0.60;;;13.60;99.90;;;;;;5093544;28;20027;-69
2022/08/06 02:46:49;;;;;;;2.15;1.23;;;13.60;99.90;;;;;;5093413;28;20020;-69
2022/08/06 02:49:27;;;;;;;2.28;0.70;;;13.60;99.90;;;;;;5093445;28;20028;-68
2022/08/06 02:51:59;;;;;;;6.93;1.75;;;13.60;99.90;;;;;;5088274;28;20418;-67
2022/08/06 02:54:35;;;;;;;6.93;0.97;;;13.60;99.90;;;;;;5072991;28;20055;-70
2022/08/06 02:57:04;;;;;;;4.38;0.90;;;13.50;99.90;;;;;;5072763;28;20281;-67
2022/08/06 02:59:35;;;;;;;2.28;1.02;;;13.50;99.90;;;;;;5072271;28;20036;-70
2022/08/06 03:02:02;;;;;;;2.22;0.80;;;13.50;99.90;;;;;;5073086;28;20027;-67
2022/08/06 03:04:31;;;;;;;6.05;1.05;;;13.50;99.90;;;;;;5072972;28;20028;-67
2022/08/06 03:07:02;;;;;;;6.80;1.30;;;13.50;99.90;;;;;;5073117;28;20021;-68
2022/08/06 03:09:27;;;;;;;4.13;1.15;;;13.50;99.90;;;;;;5073179;28;20111;-66
2022/08/06 03:11:55;;;;;;;3.85;1.17;;;13.40;99.90;;;;;;5072111;28;20138;-66
2022/08/06 03:14:22;;;;;;;3.28;1.20;;;13.40;99.90;;;;;;5072574;28;20051;-66
2022/08/06 03:16:49;;;;;;;5.07;1.20;;;13.40;99.90;;;;;;5072690;28;20024;-65
2022/08/06 03:19:17;;;;;;;5.15;1.77;;;13.30;99.90;;;;;;5072722;28;20119;-68
2022/08/06 03:21:44;;;;;;;7.07;1.63;;;13.30;99.90;;;;;;5073073;28;20063;-68
2022/08/06 03:24:12;;;;;;;5.60;1.98;;;13.30;99.90;;;;;;5072770;28;20020;-70
2022/08/06 03:26:39;;;;;;;6.05;1.30;;;13.30;99.90;;;;;;5072738;28;20350;-66
2022/08/06 03:29:06;;;;;;;4.22;1.73;;;13.20;99.90;;;;;;5073019;28;20056;-67
2022/08/06 03:31:32;;;;;;;7.65;2.10;;;13.20;99.90;;;;;;5072566;28;20025;-66
2022/08/06 03:33:58;;;;;;;5.22;1.63;;;13.20;99.90;;;;;;5072800;28;20074;-66
2022/08/06 03:36:25;;;;;;;3.53;1.60;;;13.20;99.90;;;;;;5072375;28;20021;-72
2022/08/06 03:38:57;;;;;;;6.72;1.30;;;13.10;99.90;;;;;;5072856;28;20052;-67
2022/08/06 03:41:29;;;;;;;5.03;1.48;;;13.20;99.90;;;;;;5072468;28;20024;-68
2022/08/06 03:43:54;;;;;;;3.93;1.13;;;13.20;99.90;;;;;;5072482;28;20070;-70
2022/08/06 03:46:28;;;;;;;4.13;1.70;;;13.20;99.90;;;;;;5072154;28;20024;-67
2022/08/06 03:48:58;;;;;;;4.38;1.13;;;13.20;99.90;;;;;;5070963;28;20086;-68
2022/08/06 03:51:26;;;;;;;3.42;1.20;;;13.20;99.90;;;;;;5072030;28;20473;-68
2022/08/06 03:53:53;;;;;;;5.68;1.60;;;13.20;99.90;;;;;;5092686;28;20070;-68
2022/08/06 03:56:22;;;;;;;1.95;0.95;;;13.20;99.90;;;;;;5092571;28;20485;-67
2022/08/06 03:58:51;;;;;;;4.68;1.20;;;13.20;99.90;;;;;;5092340;28;20472;-67
2022/08/06 04:01:22;;;;;;;6.50;1.20;;;13.20;99.90;;;;;;5092460;28;20070;-68
2022/08/06 04:03:49;;;;;;;3.05;1.08;;;13.20;99.90;;;;;;5092951;28;20107;-67
2022/08/06 04:06:18;;;;;;;5.88;1.25;;;13.20;99.90;;;;;;5090778;28;20063;-71
2022/08/06 04:08:45;;;;;;;2.70;1.00;;;13.30;99.90;;;;;;5092423;28;20035;-66
2022/08/06 04:11:11;;;;;;;3.95;1.13;;;13.30;99.90;;;;;;5092553;28;20020;-67
2022/08/06 04:13:38;;;;;;;1.95;1.00;;;13.20;99.90;;;;;;5091867;28;20023;-67
2022/08/06 04:16:04;;;;;;;2.20;0.90;;;13.20;99.90;;;;;;5091152;28;20020;-65
2022/08/06 04:18:38;;;;;;;4.90;1.38;;;13.20;99.90;;;;;;5091686;28;20081;-68
2022/08/06 04:21:08;;;;;;;3.13;0.98;;;13.20;99.90;;;;;;5092455;28;20153;-66
2022/08/06 04:23:34;;;;;;;4.15;0.93;;;13.30;99.90;;;;;;5092504;28;20012;-67
2022/08/06 04:26:02;;;;;;;5.18;1.02;;;13.30;99.90;;;;;;5095147;28;20024;-69
2022/08/06 04:28:30;;;;;;;1.08;0.80;;;13.30;99.90;;;;;;5096121;28;20024;-67
2022/08/06 04:30:58;;;;;;;4.35;1.10;;;13.30;99.90;;;;;;5094237;28;20027;-68
2022/08/06 04:33:25;;;;;;;2.75;1.00;;;13.40;99.90;;;;;;5095092;28;20469;-66
2022/08/06 04:35:52;;;;;;;3.47;1.27;;;13.40;99.90;;;;;;5094312;28;20035;-70
2022/08/06 04:38:20;;;;;;;6.60;1.50;;;13.40;99.90;;;;;;5094244;28;20453;-68
2022/08/06 04:40:47;;;;;;;4.35;1.00;;;13.50;99.90;;;;;;5094211;28;20423;-67
2022/08/06 04:43:13;;;;;;;2.90;0.80;;;13.50;99.90;;;;;;5095332;28;20033;-69
2022/08/06 04:45:41;;;;;;;2.40;0.90;;;13.50;99.90;;;;;;5095796;28;20028;-71
2022/08/06 04:48:09;;;;;;;4.28;1.70;;;13.50;99.90;;;;;;5094194;28;20055;-69
2022/08/06 04:50:36;;;;;;;3.53;1.30;;;13.60;99.90;;;;;;5095045;28;20028;-66
2022/08/06 04:53:15;;;;;;;4.07;1.17;;;13.60;99.90;;;;;;5094620;28;20028;-68
2022/08/06 04:55:42;;;;;;;6.05;1.35;;;13.70;99.90;;;;;;5091783;28;20048;-67
2022/08/06 04:58:10;;;;;;;4.35;1.15;;;13.80;99.90;;;;;;5095237;28;20079;-68
2022/08/06 05:00:40;;;;;;;2.47;1.00;;;13.90;99.90;;;;;;5094939;28;20032;-67
2022/08/06 05:03:06;;;;;;;2.03;1.02;;;14.00;99.90;;;;;;5095373;28;20107;-67
2022/08/06 05:05:42;;;;;;;5.47;1.13;;;14.10;99.90;;;;;;5095442;28;20095;-70
2022/08/06 05:08:09;;;;;;;7.60;1.48;;;14.20;99.90;;;;;;5095592;28;20029;-67
2022/08/06 05:10:46;;;;;;;4.20;1.50;;;14.30;99.90;;;;;;5095340;28;20028;-66
2022/08/06 05:13:14;;;;;;;5.63;1.02;;;14.30;99.90;;;;;;5095304;28;20123;-68
2022/08/06 05:15:43;;;;;;;4.85;1.10;;;14.40;99.90;;;;;;5095252;28;20047;-70
2022/08/06 05:18:24;;;;;;;4.18;1.13;;;14.40;99.90;;;;;;5095302;28;20027;-67
2022/08/06 05:20:54;;;;;;;5.28;1.33;;;14.50;99.90;;;;;;5095316;28;20097;-69
2022/08/06 05:23:41;;;;;;;3.20;1.35;;;14.50;99.90;;;;;;5095290;28;20031;-68
2022/08/06 05:26:07;;;;;;;2.22;1.08;;;14.60;99.90;;;;;;5095217;28;20016;-68
2022/08/06 05:28:33;;;;;;;5.60;1.30;;;14.70;99.90;;;;;;5095060;28;20065;-69
2022/08/06 05:30:59;;;;;;;4.00;1.10;;;14.70;99.90;;;;;;5095192;28;20020;-67
2022/08/06 05:33:26;;;;;;;1.85;1.20;;;14.80;99.90;;;;;;5095051;28;20168;-68
2022/08/06 05:35:51;;;;;;;5.53;1.50;;;14.90;99.90;;;;;;5093450;28;20024;-69
2022/08/06 05:38:17;;;;;;;3.75;1.15;;;14.90;99.90;;;;;;5093452;28;20035;-68
2022/08/06 05:40:42;;;;;;;3.67;1.10;;;15.00;99.90;;;;;;5094617;28;20042;-68
2022/08/06 05:43:08;;;;;;;3.45;1.55;;;15.10;99.90;;;;;;5094601;28;20335;-69
2022/08/06 05:45:35;;;;;;;2.30;1.20;;;15.20;99.90;;;;;;5095117;28;20365;-70
2022/08/06 05:48:04;;;;;;;5.93;1.38;;;15.30;99.90;;;;;;5094991;28;20031;-66
2022/08/06 05:50:36;;;;;;;6.95;2.20;;;15.40;99.90;;;;;;5094515;28;20035;-67
2022/08/06 05:53:08;;;;;;;10.90;2.30;;;15.50;99.90;;;;;;5094335;28;20046;-68
2022/08/06 05:55:43;;;;;;;9.30;3.28;;;15.60;99.90;;;;;;5093325;28;20024;-67
2022/08/06 05:58:20;;;;;;;5.20;2.17;;;15.70;99.90;;;;;;5094101;28;20047;-67
2022/08/06 06:00:46;;;;;;;4.82;1.30;;;15.90;99.90;;;;;;5093993;28;20042;-67
2022/08/06 06:03:13;;;;;;;6.78;1.95;;;16.00;99.90;;;;;;5094485;28;20457;-67
2022/08/06 06:05:41;;;;;;;4.63;1.10;;;16.20;99.90;;;;;;5094469;28;20031;-70
2022/08/06 06:08:08;;;;;;;4.55;1.27;;;16.30;99.90;;;;;;5094343;28;20073;-69
2022/08/06 06:10:35;;;;;;;4.15;1.15;;;16.50;99.90;;;;;;5094047;28;20031;-70
2022/08/06 06:13:05;;;;;;;5.75;1.60;;;16.70;99.90;;;;;;5094326;28;20058;-65
2022/08/06 06:15:35;;;;;;;3.28;1.00;;;17.00;99.90;;;;;;5094545;28;20055;-67
2022/08/06 06:18:04;;;;;;;6.70;1.00;;;17.40;99.90;;;;;;5093945;28;20016;-66
2022/08/06 06:20:39;;;;;;;3.80;1.33;;;17.80;99.90;;;;;;5093881;28;20032;-71
2022/08/06 06:23:15;;;;;;;4.63;1.42;;;18.50;99.90;;;;;;5094238;28;20023;-68
2022/08/06 06:25:56;;;;;;;4.28;1.30;;;19.20;99.90;;;;;;5094158;28;20016;-66
2022/08/06 06:28:34;;;;;;;4.35;1.17;;;19.90;99.50;;;;;;5093891;28;20027;-66
2022/08/06 06:31:13;;;;;;;4.05;1.42;;;20.50;98.10;;;;;;5094579;28;20039;-67
2022/08/06 06:34:07;;;;;;;3.28;1.58;;;21.00;97.70;;;;;;5093613;28;20353;-68
2022/08/06 06:36:45;;;;;;;2.05;1.33;;;21.70;96.70;;;;;;5093894;28;20032;-70
2022/08/06 06:39:25;;;;;;;1.65;0.70;;;22.40;94.90;;;;;;5092641;28;20361;-65
2022/08/06 06:42:03;;;;;;;12.55;4.93;;;22.50;94.30;;;;;;5093717;28;20016;-67
2022/08/06 06:44:39;;;;;;;3.58;1.60;;;22.70;93.30;;;;;;5093597;28;20099;-67
2022/08/06 06:47:17;;;;;;;7.85;2.88;;;22.40;93.20;;;;;;5093084;28;20028;-67
2022/08/06 06:49:47;;;;;;;2.63;1.27;;;22.00;93.40;;;;;;5093691;28;20056;-68
2022/08/06 06:52:33;;;;;;;5.45;2.10;;;22.00;93.80;;;;;;5093475;28;20044;-69
2022/08/06 06:55:11;;;;;;;8.65;3.25;;;22.70;93.50;;;;;;5093168;28;20024;-69
2022/08/06 06:57:51;;;;;;;6.10;2.30;;;23.90;92.10;;;;;;5093653;28;20055;-67
2022/08/06 07:00:16;;;;;;;3.47;1.35;;;24.00;90.50;;;;;;5093338;28;20028;-67
2022/08/06 07:02:46;;;;;;;4.47;1.63;;;23.50;90.50;;;;;;5091703;28;20026;-68
2022/08/06 07:05:16;;;;;;;6.13;2.22;;;23.30;90.90;;;;;;5089649;28;20415;-67
2022/08/06 07:07:45;;;;;;;3.33;1.55;;;23.80;90.80;;;;;;5091755;28;20104;-68
2022/08/06 07:10:13;;;;;;;3.97;1.02;;;24.40;90.00;;;;;;5092807;28;20024;-70
2022/08/06 07:12:42;;;;;;;4.88;2.22;;;24.60;88.80;;;;;;5092945;28;20035;-67
2022/08/06 07:15:09;;;;;;;3.05;0.80;;;25.30;87.00;;;;;;5093006;28;20459;-65
2022/08/06 07:17:36;;;;;;;4.55;2.00;;;26.00;84.90;;;;;;5092476;28;20365;-67
2022/08/06 07:20:07;;;;;;;3.58;1.52;;;26.40;83.90;;;;;;5092284;28;20093;-66
2022/08/06 07:22:35;;;;;;;2.25;1.00;;;26.70;81.60;;;;;;5090004;28;20017;-67
2022/08/06 07:25:04;;;;;;;3.92;1.80;;;26.90;79.10;;;;;;5092714;28;20091;-67
2022/08/06 07:27:37;;;;;;;4.13;1.15;;;27.00;78.20;;;;;;5093152;28;20021;-67
2022/08/06 07:30:05;;;;;;;5.28;0.90;;;27.10;78.60;;;;;;5093249;28;20024;-66
2022/08/06 07:32:33;;;;;;;2.88;1.05;;;26.90;79.20;;;;;;5073508;28;20369;-68
2022/08/06 07:35:01;;;;;;;2.50;1.08;;;26.60;79.70;;;;;;5091728;28;20445;-67
2022/08/06 07:37:28;;;;;;;8.32;2.70;;;26.20;80.20;;;;;;5093046;28;20101;-66
2022/08/06 07:39:56;;;;;;;3.00;1.58;;;25.90;80.70;;;;;;5092834;28;20092;-66
2022/08/06 07:42:24;;;;;;;6.45;1.70;;;25.70;80.70;;;;;;5091718;28;20558;-69
2022/08/06 07:45:01;;;;;;;3.13;1.42;;;25.40;80.30;;;;;;5093060;28;20016;-68
2022/08/06 07:47:37;;;;;;;3.13;0.90;;;25.10;80.70;;;;;;5093041;28;20047;-67
2022/08/06 07:50:03;;;;;;;2.53;1.40;;;24.70;81.40;;;;;;5092762;28;20454;-66
2022/08/06 07:52:30;;;;;;;4.63;1.60;;;24.40;83.20;;;;;;5092334;28;20045;-69
2022/08/06 07:54:56;;;;;;;3.53;1.05;;;24.40;83.30;;;;;;5090824;28;20027;-69
2022/08/06 07:57:24;;;;;;;1.63;0.90;;;24.50;82.10;;;;;;5091689;28;20051;-67
2022/08/06 07:59:50;;;;;;;4.00;0.90;;;24.50;82.70;;;;;;5095556;28;20469;-67
2022/08/06 08:02:16;;;;;;;3.28;1.13;;;24.80;82.20;;;;;;5096991;28;20024;-67
2022/08/06 08:07:28;;;;;;;2.50;0.70;;;25.70;80.40;;;;;;5092268;28;20081;-68
2022/08/06 08:09:54;;;;;;;1.05;0.77;;;26.20;78.30;;;;;;5096033;28;20047;-67
2022/08/06 08:12:21;;;;;;;4.07;0.70;;;26.60;77.30;;;;;;5096915;28;20024;-67
2022/08/06 08:14:48;;;;;;;2.95;0.63;;;27.10;75.90;;;;;;5096588;28;20048;-70
2022/08/06 08:17:14;;;;;;;4.97;0.50;;;27.70;74.30;;;;;;5096622;28;20030;-66
2022/08/06 08:19:40;;;;;;;2.10;0.80;;;28.50;72.40;;;;;;5096327;28;20035;-66
2022/08/06 08:22:09;;;;;;;2.80;0.60;;;29.10;72.70;;;;;;5096390;28;20103;-67
2022/08/06 08:24:37;;;;;;;2.20;0.60;;;29.90;70.50;;;;;;5096367;28;20024;-66
2022/08/06 08:27:03;;;;;;;1.98;0.50;;;30.80;69.50;;;;;;5096237;28;20016;-67
2022/08/06 08:29:29;;;;;;;2.42;0.50;;;31.60;65.40;;;;;;5096142;28;20020;-68
2022/08/06 08:31:55;;;;;;;1.65;0.85;;;32.30;64.70;;;;;;5095967;28;20073;-69
2022/08/06 08:34:21;;;;;;;2.25;0.68;;;33.00;63.00;;;;;;5094264;28;20016;-67
2022/08/06 08:36:47;;;;;;;3.45;0.50;;;33.50;61.60;;;;;;5095610;28;20107;-67
2022/08/06 08:39:14;;;;;;;1.85;0.40;;;33.90;60.70;;;;;;5093987;28;20127;-69
2022/08/06 08:41:47;;;;;;;2.20;0.68;;;34.30;60.50;;;;;;5094613;28;20044;-67
2022/08/06 08:44:13;;;;;;;1.88;0.57;;;34.80;59.80;;;;;;5094211;28;20094;-70
2022/08/06 08:46:42;;;;;;;1.00;0.38;;;35.50;58.70;;;;;;5094771;28;20449;-67
2022/08/06 08:49:19;;;;;;;3.05;0.60;;;36.20;57.00;;;;;;5094146;28;20379;-67
2022/08/06 08:51:46;;;;;;;1.13;0.63;;;36.70;56.10;;;;;;5093124;28;20027;-66
2022/08/06 08:54:16;;;;;;;2.45;0.70;;;36.70;54.50;;;;;;5094185;28;20028;-69
2022/08/06 08:56:43;;;;;;;2.25;0.73;;;36.10;55.10;;;;;;5094061;28;20020;-66
2022/08/06 08:59:08;;;;;;;3.03;0.75;;;35.80;55.20;;;;;;5093467;28;20031;-66
2022/08/06 09:01:35;;;;;;;2.15;0.60;;;35.80;55.20;;;;;;5093040;28;20016;-68
2022/08/06 09:04:04;;;;;;;1.80;0.68;;;35.90;54.90;;;;;;5093331;28;20143;-68
2022/08/06 09:06:32;;;;;;;2.67;1.05;;;36.20;54.80;;;;;;5093782;28;20023;-67
2022/08/06 09:09:03;;;;;;;2.53;0.50;;;36.50;54.20;;;;;;5080119;28;20035;-67
2022/08/06 09:11:33;;;;;;;3.67;0.93;;;36.70;53.40;;;;;;5090147;28;20020;-70
2022/08/06 09:14:04;;;;;;;2.97;1.03;;;36.60;54.10;;;;;;5094285;28;20419;-69
2022/08/06 09:16:31;;;;;;;4.28;1.23;;;36.10;53.40;;;;;;5094936;28;20020;-67
2022/08/06 09:18:57;;;;;;;1.50;0.70;;;35.40;54.00;;;;;;5095295;28;20044;-71
2022/08/06 09:21:23;;;;;;;0.90;0.40;;;35.40;54.50;;;;;;5093765;28;20408;-67
2022/08/06 09:23:49;;;;;;;1.58;0.60;;;36.00;54.50;;;;;;5094551;28;20032;-69
2022/08/06 09:26:14;;;;;;;2.53;0.52;;;36.80;53.70;;;;;;5094811;28;20024;-69
2022/08/06 09:28:42;;;;;;;3.85;0.98;;;37.60;52.00;;;;;;5094967;28;20485;-70
2022/08/06 09:31:13;;;;;;;3.00;0.90;;;37.50;52.10;;;;;;5094831;28;20028;-67
2022/08/06 09:33:42;;;;;;;4.30;1.00;;;37.00;52.40;;;;;;5093657;28;20522;-67
2022/08/06 09:36:12;;;;;;;0.77;0.50;;;36.40;53.10;;;;;;5094931;28;20454;-71
2022/08/06 09:38:59;;;;;;;1.05;0.40;;;36.40;52.80;;;;;;5093906;28;20353;-69
2022/08/06 09:41:27;;;;;;;1.13;0.50;;;36.70;51.40;;;;;;5094282;28;20103;-71
2022/08/06 09:43:54;;;;;;;1.60;0.40;;;37.00;51.10;;;;;;5094422;28;20028;-70
2022/08/06 09:46:36;;;;;;;3.75;0.90;;;37.40;50.20;;;;;;5093706;28;20027;-68
2022/08/06 09:49:03;;;;;;;2.53;0.50;;;37.90;50.20;;;;;;5094592;28;20023;-67
2022/08/06 09:51:30;;;;;;;0.80;0.40;;;38.20;49.40;;;;;;5094775;28;20085;-67
2022/08/06 09:53:58;;;;;;;1.83;0.65;;;38.20;49.30;;;;;;5094024;28;20365;-70
2022/08/06 09:56:25;;;;;;;3.15;0.70;;;38.10;48.40;;;;;;5094409;28;20099;-68
2022/08/06 09:59:07;;;;;;;3.65;0.68;;;37.80;49.10;;;;;;5094570;28;20048;-67
2022/08/06 10:01:38;;;;;;;;;;;36.90;50.20;;;;;;5094890;28;20094;-69
2022/08/06 10:04:04;;;;;;;1.58;0.52;;;36.20;50.40;;;;;;5094545;28;19945;-68
2022/08/06 10:06:30;;;;;;;3.25;0.70;;;35.50;51.10;;;;;;5094334;28;20028;-68
2022/08/06 10:09:07;;;;;;;1.55;0.50;;;35.10;51.50;;;;;;5094276;28;20031;-67
2022/08/06 10:11:37;;;;;;;0.35;0.28;;;35.30;50.40;;;;;;5094152;28;20055;-66
2022/08/06 10:14:03;;;;;;;0.98;0.25;;;35.90;50.70;;;;;;5093804;28;20024;-66
2022/08/06 10:16:29;;;;;;;2.63;0.80;;;36.60;50.30;;;;;;5094740;28;20031;-67
2022/08/06 10:18:56;;;;;;;1.63;0.40;;;36.30;50.50;;;;;;5094065;28;20430;-68
2022/08/06 10:21:32;;;;;;;0.75;0.40;;;36.30;51.40;;;;;;5093767;28;20020;-67
2022/08/06 10:24:01;;;;;;;1.63;0.43;;;37.00;50.80;;;;;;5082139;28;20463;-67
2022/08/06 10:26:33;;;;;;;3.22;0.88;;;37.50;50.10;;;;;;5093430;28;20099;-66
2022/08/06 10:29:04;;;;;;;1.80;0.70;;;37.70;49.80;;;;;;5093918;28;20024;-65
2022/08/06 10:31:32;;;;;;;2.30;0.38;;;38.00;49.70;;;;;;5081063;28;20117;-69
2022/08/06 10:34:01;;;;;;;0.60;0.60;;;38.10;48.40;;;;;;5073247;28;20029;-67
2022/08/06 10:36:39;;;;;;;0.50;0.22;;;38.30;48.60;;;;;;5073443;28;20052;-68
2022/08/06 10:39:07;;;;;;;2.47;0.93;;;38.20;48.30;;;;;;5077442;28;20475;-67
2022/08/06 10:41:34;;;;;;;1.00;0.60;;;38.30;48.60;;;;;;5093407;28;20024;-66
2022/08/06 10:44:02;;;;;;;2.33;0.52;;;38.20;48.80;;;;;;5093012;28;20457;-67
2022/08/06 10:46:29;;;;;;;1.67;0.30;;;38.20;49.10;;;;;;5093344;28;20032;-70
2022/08/06 10:48:55;;;;;;;1.70;0.47;;;38.10;48.90;;;;;;5093592;28;20476;-70
2022/08/06 10:51:21;;;;;;;0.80;0.32;;;38.00;49.00;;;;;;5093263;28;20012;-67
2022/08/06 10:53:47;;;;;;;1.83;0.52;;;38.20;48.20;;;;;;5093434;28;20354;-67
2022/08/06 10:56:15;;;;;;;1.05;0.43;;;38.20;48.00;;;;;;5088267;28;20016;-67
2022/08/06 10:58:41;;;;;;;2.05;0.55;;;38.10;48.20;;;;;;5071646;28;20075;-69
2022/08/06 11:01:10;;;;;;;0.98;0.40;;;38.20;48.10;;;;;;5072990;28;20029;-67
2022/08/06 11:04:09;;;;;;;1.00;0.30;;;38.40;47.60;;;;;;5073197;28;20180;-66
2022/08/06 11:06:49;;;;;;;1.92;0.50;;;38.50;47.20;;;;;;5073200;28;20032;-70
2022/08/06 11:09:55;;;;;;;2.58;0.45;;;38.10;47.60;;;;;;5073441;28;20017;-66
2022/08/06 11:12:42;;;;;;;2.03;0.52;;;38.20;47.60;;;;;;5069131;28;20024;-69
2022/08/06 11:15:08;;;;;;;1.60;0.52;;;38.20;47.30;;;;;;5089281;28;20028;-68
2022/08/06 11:18:07;;;;;;;0.50;0.40;;;38.50;46.70;;;;;;5092965;28;20020;-67
2022/08/06 11:20:33;;;;;;;1.00;0.40;;;38.70;46.20;;;;;;5060012;28;20483;-67
2022/08/06 11:23:00;;;;;;;1.45;0.50;;;38.90;46.20;;;;;;5072680;28;20024;-69
2022/08/06 11:25:40;;;;;;;2.63;0.70;;;39.00;46.20;;;;;;5071630;28;20020;-68
2022/08/06 11:28:10;;;;;;;0.55;0.43;;;39.20;45.70;;;;;;5072736;28;20025;-66
2022/08/06 11:30:43;;;;;;;1.70;0.33;;;39.20;45.50;;;;;;5072811;28;20062;-66
2022/08/06 11:33:10;;;;;;;0.98;0.32;;;39.20;45.10;;;;;;5073336;28;20107;-69
2022/08/06 11:35:36;;;;;;;2.85;0.55;;;39.10;45.20;;;;;;5077035;28;20331;-66
2022/08/06 11:38:05;;;;;;;0.90;0.38;;;39.10;45.40;;;;;;5077073;28;20032;-67
2022/08/06 11:41:09;;;;;;;1.30;0.45;;;39.40;45.40;;;;;;5076666;28;20081;-67
2022/08/06 11:43:47;;;;;;;1.48;0.50;;;39.70;45.40;;;;;;5034395;28;20066;-67
2022/08/06 11:46:25;;;;;;;0.75;0.40;;;39.80;45.80;;;;;;5072097;28;20032;-66
2022/08/06 11:49:00;;;;;;;1.30;0.40;;;39.90;45.70;;;;;;5076908;28;20021;-68
2022/08/06 11:51:52;;;;;;;0.98;0.50;;;40.00;45.90;;;;;;5076369;28;20024;-67
2022/08/06 11:54:32;;;;;;;3.13;0.38;;;40.10;45.70;;;;;;5076582;28;20074;-67
2022/08/06 11:57:06;;;;;;;0.88;0.32;;;39.90;46.10;;;;;;5076147;28;20128;-68
2022/08/06 11:59:33;;;;;;;0.68;0.40;;;39.90;45.40;;;;;;5076186;28;20082;-66
2022/08/06 12:02:03;;;;;;;2.17;0.30;;;40.00;45.20;;;;;;5076308;28;20048;-66
2022/08/06 12:04:35;;;;;;;0.50;0.50;;;40.30;45.50;;;;;;5076108;28;20025;-67
2022/08/06 12:07:25;;;;;;;1.00;0.40;;;40.50;44.90;;;;;;5076418;28;20020;-69
2022/08/06 12:10:06;;;;;;;2.03;0.47;;;40.40;45.10;;;;;;5076200;28;20025;-67
2022/08/06 12:12:39;;;;;;;;;;;39.80;45.40;;;;;;5077063;28;20024;-67
2022/08/06 12:15:19;;;;;;;0.65;0.30;;;39.60;45.60;;;;;;5076271;28;19900;-69
2022/08/06 12:17:54;;;;;;;1.98;0.43;;;39.60;45.70;;;;;;5076006;28;20434;-66
2022/08/06 12:20:34;;;;;;;0.73;0.30;;;39.60;45.40;;;;;;5076093;28;20115;-69
2022/08/06 12:23:04;;;;;;;1.15;0.40;;;39.60;45.20;;;;;;5075951;28;20013;-67
2022/08/06 12:25:41;;;;;;;2.13;0.50;;;39.70;45.40;;;;;;5075815;28;20025;-67
2022/08/06 12:28:08;;;;;;;0.50;0.30;;;39.70;45.10;;;;;;5075591;28;20036;-68
2022/08/06 12:30:47;;;;;;;0.90;0.47;;;39.90;45.20;;;;;;5075842;28;20025;-70
2022/08/06 12:33:13;;;;;;;2.17;0.52;;;39.70;45.20;;;;;;5075864;28;20046;-67
2022/08/06 12:35:53;;;;;;;2.05;0.35;;;39.10;45.40;;;;;;5075633;28;20056;-67
2022/08/06 12:38:21;;;;;;;0.80;0.40;;;38.90;45.70;;;;;;5075812;28;20481;-70
2022/08/06 12:40:59;;;;;;;0.65;0.30;;;38.70;45.80;;;;;;5075043;28;20058;-67
2022/08/06 12:43:28;;;;;;;0.75;0.50;;;37.80;46.60;;;;;;5075936;28;20021;-69
2022/08/06 12:45:59;;;;;;;0.68;0.50;;;36.90;47.60;;;;;;5074278;28;20013;-67
2022/08/06 12:48:24;;;;;;;1.80;0.40;;;36.40;47.80;;;;;;5075551;28;20020;-67
2022/08/06 12:51:00;;;;;;;2.70;0.60;;;35.90;47.70;;;;;;5075555;28;20291;-67
2022/08/06 12:53:26;;;;;;;1.70;0.50;;;35.60;48.30;;;;;;5075061;28;20028;-66
2022/08/06 12:55:55;;;;;;;3.13;0.50;;;35.20;48.20;;;;;;5071620;28;20020;-68
2022/08/06 12:58:35;;;;;;;2.38;0.40;;;34.80;49.10;;;;;;5093927;28;20126;-68
2022/08/06 13:01:02;;;;;;;0.30;0.22;;;34.30;49.60;;;;;;5094672;28;20028;-65
2022/08/06 13:03:29;;;;;;;0.77;0.40;;;33.70;50.10;;;;;;5094127;28;20034;-66
2022/08/06 13:05:58;;;;;;;0.95;0.43;;;33.20;50.40;;;;;;5094665;28;20028;-66
2022/08/06 13:08:25;;;;;;;2.10;0.45;;;32.70;51.00;;;;;;5095402;28;20095;-66